createdAt,value
2024-03-06T00:00:41.448Z,24.30
2024-03-06T00:03:34.809Z,24.10
2024-03-06T00:06:08.644Z,26.30
2024-03-06T00:08:41.875Z,27.10
2024-03-06T00:11:15.197Z,29.90
2024-03-06T00:13:49.154Z,26.90
2024-03-06T00:16:22.503Z,28.20
2024-03-06T00:18:55.671Z,28.40
2024-03-06T00:21:29.828Z,30.60
2024-03-06T00:24:03.329Z,30.10
2024-03-06T00:26:36.511Z,21.60
2024-03-06T00:29:10.863Z,20.70
2024-03-06T00:31:48.348Z,21.20
2024-03-06T00:34:21.587Z,19.50
2024-03-06T00:36:55.619Z,20.90
2024-03-06T00:39:28.874Z,21.60
2024-03-06T00:42:02.154Z,19.80
2024-03-06T00:44:35.354Z,20.10
2024-03-06T00:47:08.965Z,22.30
2024-03-06T00:49:43.420Z,21.10
2024-03-06T00:52:17.462Z,18.80
2024-03-06T00:54:50.640Z,22.00
2024-03-06T00:57:23.798Z,20.40
2024-03-06T00:59:57.593Z,21.00
2024-03-06T01:02:30.776Z,20.80
2024-03-06T01:05:05.511Z,25.80
2024-03-06T01:07:41.515Z,22.10
2024-03-06T01:10:15.086Z,20.70
2024-03-06T01:12:48.673Z,18.20
2024-03-06T01:15:22.101Z,18.20
2024-03-06T01:17:55.284Z,16.90
2024-03-06T01:20:28.670Z,17.50
2024-03-06T01:23:02.253Z,16.00
2024-03-06T01:25:35.639Z,15.80
2024-03-06T01:28:09.620Z,16.20
2024-03-06T01:30:43.032Z,18.10
2024-03-06T01:33:16.303Z,16.40
2024-03-06T01:35:49.495Z,22.40
2024-03-06T01:38:22.872Z,18.90
2024-03-06T01:40:56.208Z,24.40
2024-03-06T01:43:30.049Z,24.10
2024-03-06T01:46:07.191Z,24.80
2024-03-06T01:48:40.547Z,22.40
2024-03-06T01:51:14.154Z,21.80
2024-03-06T01:53:47.592Z,19.50
2024-03-06T01:56:21.711Z,22.00
2024-03-06T01:58:58.225Z,21.10
2024-03-06T02:01:32.040Z,20.50
2024-03-06T02:04:06.577Z,22.90
2024-03-06T02:06:42.033Z,20.40
2024-03-06T02:09:16.638Z,22.80
2024-03-06T02:11:51.324Z,25.50
2024-03-06T02:14:25.302Z,22.00
2024-03-06T02:16:58.616Z,24.30
2024-03-06T02:19:44.064Z,24.40
2024-03-06T02:22:17.658Z,21.10
2024-03-06T02:24:53.310Z,17.30
2024-03-06T02:27:26.497Z,19.00
2024-03-06T02:29:59.745Z,16.70
2024-03-06T02:32:33.090Z,12.50
2024-03-06T02:35:10.176Z,15.60
2024-03-06T02:37:45.904Z,13.40
2024-03-06T02:40:19.426Z,10.70
2024-03-06T02:42:52.727Z,13.30
2024-03-06T02:45:26.058Z,14.70
2024-03-06T02:47:59.379Z,16.50
2024-03-06T02:50:32.596Z,15.00
2024-03-06T02:53:06.095Z,16.00
2024-03-06T02:55:39.346Z,14.70
2024-03-06T02:58:12.599Z,15.40
2024-03-06T03:00:46.582Z,17.10
2024-03-06T03:03:21.119Z,11.40
2024-03-06T03:05:54.500Z,13.20
2024-03-06T03:08:27.798Z,16.90
2024-03-06T03:11:01.007Z,14.40
2024-03-06T03:13:34.320Z,15.70
2024-03-06T03:16:08.813Z,14.70
2024-03-06T03:18:41.933Z,15.60
2024-03-06T03:21:15.193Z,16.70
2024-03-06T03:23:48.431Z,18.00
2024-03-06T03:26:21.952Z,15.80
2024-03-06T03:28:56.924Z,12.60
2024-03-06T03:31:30.185Z,14.30
2024-03-06T03:34:03.420Z,15.60
2024-03-06T03:36:38.236Z,16.80
2024-03-06T03:39:16.986Z,16.70
2024-03-06T03:41:51.288Z,17.50
2024-03-06T03:44:24.815Z,19.40
2024-03-06T03:46:58.351Z,17.40
2024-03-06T03:49:31.652Z,15.20
2024-03-06T03:52:05.329Z,13.80
2024-03-06T03:54:38.470Z,14.90
2024-03-06T03:57:12.089Z,9.90
2024-03-06T03:59:45.353Z,13.20
2024-03-06T04:02:19.369Z,13.80
2024-03-06T04:04:52.865Z,14.20
2024-03-06T04:07:26.042Z,16.00
2024-03-06T04:09:59.917Z,14.50
2024-03-06T04:12:33.220Z,13.40
2024-03-06T04:15:07.552Z,14.70
2024-03-06T04:17:42.336Z,17.60
2024-03-06T04:20:17.181Z,16.20
2024-03-06T04:22:52.213Z,10.80
2024-03-06T04:25:26.162Z,10.10
2024-03-06T04:27:59.343Z,15.10
2024-03-06T04:30:32.498Z,13.10
2024-03-06T04:33:05.921Z,10.80
2024-03-06T04:35:39.130Z,14.30
2024-03-06T04:38:12.345Z,14.90
2024-03-06T04:40:46.377Z,14.00
2024-03-06T04:43:19.980Z,11.00
2024-03-06T04:45:53.190Z,13.70
2024-03-06T04:48:26.798Z,14.10
2024-03-06T04:51:00.101Z,16.80
2024-03-06T04:53:33.631Z,10.90
2024-03-06T04:56:08.697Z,14.50
2024-03-06T04:58:42.453Z,13.40
2024-03-06T05:01:16.974Z,11.30
2024-03-06T05:58:09.450Z,13.60
2024-03-06T06:00:43.382Z,14.10
2024-03-06T06:03:17.750Z,17.30
2024-03-06T06:05:52.318Z,21.70
2024-03-06T06:08:25.875Z,12.60
2024-03-06T06:10:59.218Z,12.70
2024-03-06T06:13:32.722Z,9.70
2024-03-06T06:16:06.848Z,11.20
2024-03-06T06:18:43.076Z,11.30
2024-03-06T06:21:17.436Z,13.30
2024-03-06T06:23:50.550Z,14.40
2024-03-06T06:26:24.271Z,17.00
2024-03-06T06:28:57.618Z,12.40
2024-03-06T06:31:30.957Z,9.10
2024-03-06T06:34:04.430Z,9.00
2024-03-06T06:36:38.865Z,12.00
2024-03-06T06:39:13.483Z,11.10
2024-03-06T06:41:46.777Z,12.30
2024-03-06T06:44:20.251Z,13.10
2024-03-06T06:46:53.575Z,11.60
2024-03-06T06:49:26.876Z,13.90
2024-03-06T06:52:00.610Z,11.70
2024-03-06T06:54:34.070Z,15.90
2024-03-06T06:57:07.294Z,17.10
2024-03-06T06:59:40.654Z,14.30
2024-03-06T07:02:14.048Z,14.70
2024-03-06T07:04:47.611Z,15.80
2024-03-06T07:07:20.894Z,15.90
2024-03-06T07:09:54.084Z,20.40
2024-03-06T07:12:28.060Z,18.10
2024-03-06T07:15:01.461Z,15.40
2024-03-06T07:17:34.842Z,13.90
2024-03-06T07:20:11.575Z,13.10
2024-03-06T07:22:44.797Z,12.40
2024-03-06T07:25:18.301Z,14.20
2024-03-06T07:27:51.557Z,12.60
2024-03-06T07:30:25.154Z,14.70
2024-03-06T07:32:58.905Z,15.40
2024-03-06T07:35:32.237Z,12.40
2024-03-06T07:38:06.239Z,10.60
2024-03-06T07:40:39.477Z,14.80
2024-03-06T07:43:13.093Z,12.40
2024-03-06T07:45:46.415Z,17.20
2024-03-06T07:48:19.732Z,14.90
2024-03-06T07:50:52.933Z,13.70
2024-03-06T07:53:26.754Z,13.00
2024-03-06T07:55:59.369Z,13.60
2024-03-06T07:58:32.282Z,15.40
2024-03-06T08:01:04.853Z,15.10
2024-03-06T08:03:37.524Z,12.40
2024-03-06T08:06:11.028Z,12.30
2024-03-06T08:08:46.466Z,12.00
2024-03-06T08:11:18.981Z,14.70
2024-03-06T08:13:52.519Z,14.70
2024-03-06T08:16:24.729Z,8.60
2024-03-06T08:18:57.544Z,12.60
2024-03-06T08:21:30.137Z,11.90
2024-03-06T08:24:02.386Z,13.80
2024-03-06T08:26:34.710Z,14.50
2024-03-06T08:29:07.870Z,11.70
2024-03-06T08:31:40.184Z,16.30
2024-03-06T08:34:12.717Z,12.50
2024-03-06T08:36:44.952Z,14.00
2024-03-06T08:39:17.607Z,13.00
2024-03-06T08:41:50.040Z,17.00
2024-03-06T08:44:22.540Z,15.80
2024-03-06T08:46:54.840Z,16.00
2024-03-06T08:49:27.072Z,12.90
2024-03-06T08:51:59.342Z,11.90
2024-03-06T08:54:32.236Z,18.00
2024-03-06T08:57:04.626Z,13.20
2024-03-06T08:59:37.030Z,20.40
2024-03-06T09:02:20.804Z,14.40
2024-03-06T09:04:53.921Z,16.50
2024-03-06T09:07:26.941Z,15.80
2024-03-06T09:09:59.258Z,11.00
2024-03-06T09:12:31.899Z,12.10
2024-03-06T09:15:05.394Z,15.10
2024-03-06T09:17:37.741Z,13.60
2024-03-06T09:20:14.076Z,13.80
2024-03-06T09:22:47.916Z,13.60
2024-03-06T09:25:20.524Z,13.80
2024-03-06T09:27:53.095Z,14.70
2024-03-06T09:30:25.470Z,15.10
2024-03-06T09:32:58.097Z,15.50
2024-03-06T09:35:30.810Z,13.50
2024-03-06T09:38:03.283Z,12.40
2024-03-06T09:40:35.521Z,13.40
2024-03-06T09:43:08.966Z,15.10
2024-03-06T09:45:41.367Z,14.20
2024-03-06T09:48:14.230Z,14.20
2024-03-06T09:50:49.134Z,10.80
2024-03-06T09:53:23.863Z,16.30
2024-03-06T09:55:58.614Z,12.30
2024-03-06T09:58:30.976Z,16.30
2024-03-06T10:01:08.320Z,15.00
2024-03-06T10:03:42.291Z,14.60
2024-03-06T10:06:15.164Z,15.50
2024-03-06T10:08:50.530Z,15.20
2024-03-06T10:11:23.299Z,15.90
2024-03-06T10:13:57.797Z,15.90
2024-03-06T10:16:29.974Z,15.80
2024-03-06T10:19:19.467Z,13.50
2024-03-06T10:21:53.860Z,15.60
2024-03-06T10:24:27.992Z,16.70
2024-03-06T10:27:02.009Z,16.50
2024-03-06T10:29:36.591Z,15.10
2024-03-06T10:32:10.282Z,17.70
2024-03-06T10:34:43.268Z,16.60
2024-03-06T10:37:16.318Z,11.60
2024-03-06T10:39:52.854Z,21.50
2024-03-06T10:42:29.676Z,18.00
2024-03-06T10:45:07.262Z,10.90
2024-03-06T10:47:42.153Z,17.80
2024-03-06T10:50:18.978Z,16.40
2024-03-06T10:52:56.389Z,16.50
2024-03-06T10:55:35.493Z,13.90
2024-03-06T10:58:10.704Z,18.80
2024-03-06T11:00:47.425Z,10.90
2024-03-06T11:03:20.136Z,13.00
2024-03-06T11:05:53.320Z,14.40
2024-03-06T11:08:26.711Z,14.70
2024-03-06T11:11:26.455Z,12.90
2024-03-06T11:14:05.888Z,16.60
2024-03-06T11:17:03.168Z,18.50
2024-03-06T11:19:56.630Z,14.00
2024-03-06T11:23:11.554Z,15.60
2024-03-06T11:26:07.102Z,11.20
2024-03-06T11:28:42.318Z,14.50
2024-03-06T11:31:19.954Z,12.00
2024-03-06T11:33:57.766Z,13.30
2024-03-06T11:36:31.423Z,14.70
2024-03-06T11:39:07.785Z,16.00
2024-03-06T11:41:54.428Z,16.60
2024-03-06T11:44:30.922Z,18.70
2024-03-06T11:47:05.901Z,12.50
2024-03-06T11:49:40.043Z,17.30
2024-03-06T11:52:13.192Z,16.80
2024-03-06T11:54:45.541Z,18.40
2024-03-06T11:57:21.768Z,14.60
2024-03-06T11:59:56.684Z,18.10
2024-03-06T12:02:29.440Z,17.40
2024-03-06T12:05:06.993Z,13.40
2024-03-06T12:07:51.638Z,19.30
2024-03-06T12:10:24.617Z,19.90
2024-03-06T12:12:56.805Z,22.70
2024-03-06T12:15:29.074Z,16.60
2024-03-06T12:18:01.988Z,15.80
2024-03-06T12:20:34.453Z,18.80
2024-03-06T12:23:06.930Z,17.50
2024-03-06T12:25:39.563Z,17.20
2024-03-06T12:28:13.505Z,22.10
2024-03-06T12:30:47.684Z,22.00
2024-03-06T12:33:22.924Z,16.50
2024-03-06T12:36:11.895Z,23.90
2024-03-06T12:38:44.673Z,18.20
2024-03-06T12:41:17.322Z,14.90
2024-03-06T12:43:49.834Z,22.40
2024-03-06T12:46:22.504Z,21.80
2024-03-06T12:48:55.486Z,17.60
2024-03-06T12:51:28.059Z,23.10
2024-03-06T12:54:00.420Z,19.90
2024-03-06T12:56:34.874Z,17.20
2024-03-06T12:59:07.144Z,21.30
2024-03-06T13:01:39.416Z,20.50
2024-03-06T13:04:13.337Z,25.20
2024-03-06T13:06:46.449Z,18.20
2024-03-06T13:09:19.067Z,20.50
2024-03-06T13:11:51.555Z,18.50
2024-03-06T13:14:23.853Z,21.00
2024-03-06T13:16:57.169Z,24.70
2024-03-06T13:19:30.278Z,21.00
2024-03-06T13:22:05.567Z,23.30
2024-03-06T13:24:42.177Z,23.00
2024-03-06T13:27:16.844Z,26.20
2024-03-06T13:29:49.177Z,24.70
2024-03-06T13:32:21.695Z,19.20
2024-03-06T13:34:54.204Z,21.80
2024-03-06T13:37:26.773Z,22.60
2024-03-06T13:40:02.085Z,24.90
2024-03-06T13:42:34.684Z,24.50
2024-03-06T13:45:12.804Z,25.70
2024-03-06T13:47:47.146Z,25.20
2024-03-06T13:50:23.190Z,22.30
2024-03-06T13:52:55.574Z,24.90
2024-03-06T13:55:29.969Z,23.50
2024-03-06T13:58:05.089Z,19.30
2024-03-06T14:00:38.022Z,26.80
2024-03-06T14:03:13.085Z,29.00
2024-03-06T14:05:46.857Z,27.10
2024-03-06T14:08:22.493Z,25.10
2024-03-06T14:10:55.383Z,30.40
2024-03-06T14:13:31.700Z,27.70
2024-03-06T14:16:04.992Z,24.30
2024-03-06T14:18:37.856Z,20.70
2024-03-06T14:21:11.697Z,19.90
2024-03-06T14:23:45.222Z,20.90
2024-03-06T14:26:18.512Z,24.40
2024-03-06T14:28:51.770Z,25.60
2024-03-06T14:31:29.640Z,24.90
2024-03-06T14:34:06.165Z,24.70
2024-03-06T14:36:39.516Z,24.20
2024-03-06T14:39:23.602Z,22.00
2024-03-06T14:41:59.439Z,26.80
2024-03-06T14:44:32.010Z,25.80
2024-03-06T14:47:04.474Z,26.80
2024-03-06T14:49:37.023Z,23.40
2024-03-06T14:52:10.229Z,26.30
2024-03-06T14:54:44.891Z,23.90
2024-03-06T14:57:17.877Z,22.70
2024-03-06T14:59:51.217Z,22.90
2024-03-06T15:02:23.618Z,23.20
2024-03-06T15:04:56.015Z,23.90
2024-03-06T15:07:28.395Z,27.30
2024-03-06T15:10:00.641Z,20.20
2024-03-06T15:12:32.943Z,25.70
2024-03-06T15:15:07.597Z,25.40
2024-03-06T15:17:40.957Z,28.30
2024-03-06T15:20:16.296Z,20.60
2024-03-06T15:22:48.913Z,21.60
2024-03-06T15:25:22.963Z,20.80
2024-03-06T15:27:55.142Z,18.50
2024-03-06T15:30:29.281Z,18.50
2024-03-06T15:33:01.750Z,19.20
2024-03-06T15:35:34.166Z,18.40
2024-03-06T15:38:06.850Z,20.40
2024-03-06T15:40:39.561Z,20.50
2024-03-06T15:43:11.839Z,17.10
2024-03-06T15:45:44.483Z,17.90
2024-03-06T15:48:16.984Z,20.50
2024-03-06T15:50:49.823Z,18.80
2024-03-06T15:53:29.411Z,18.40
2024-03-06T15:56:01.780Z,17.50
2024-03-06T15:58:34.240Z,19.10
2024-03-06T16:01:07.624Z,23.70
2024-03-06T16:03:39.811Z,19.40
2024-03-06T16:06:18.241Z,17.90
2024-03-06T16:08:51.974Z,14.30
2024-03-06T16:11:24.367Z,19.40
2024-03-06T16:14:00.254Z,23.10
2024-03-06T16:16:32.616Z,20.20
2024-03-06T16:19:04.902Z,20.80
2024-03-06T16:21:38.328Z,21.50
2024-03-06T16:24:11.791Z,19.60
2024-03-06T16:26:44.141Z,21.00
2024-03-06T16:29:16.499Z,20.40
2024-03-06T16:31:50.428Z,19.30
2024-03-06T16:34:25.469Z,20.60
2024-03-06T16:36:58.099Z,21.70
2024-03-06T16:39:30.844Z,19.80
2024-03-06T16:42:04.972Z,24.40
2024-03-06T16:44:38.700Z,22.40
2024-03-06T16:47:11.076Z,19.70
2024-03-06T16:49:43.176Z,24.00
2024-03-06T16:52:15.329Z,20.30
2024-03-06T16:54:48.141Z,19.50
2024-03-06T16:57:20.354Z,20.30
2024-03-06T16:59:52.690Z,19.10
2024-03-06T17:02:25.010Z,18.50
2024-03-06T17:04:58.386Z,18.40
2024-03-06T17:07:31.585Z,19.30
2024-03-06T17:10:06.127Z,16.00
2024-03-06T17:12:39.618Z,16.20
2024-03-06T17:15:13.970Z,16.80
2024-03-06T17:17:47.219Z,18.80
2024-03-06T17:20:21.157Z,14.20
2024-03-06T17:22:56.867Z,17.40
2024-03-06T17:25:30.239Z,16.70
2024-03-06T17:28:03.580Z,19.30
2024-03-06T17:30:37.067Z,14.00
2024-03-06T17:33:10.649Z,15.10
2024-03-06T17:35:44.220Z,9.70
2024-03-06T17:38:18.582Z,15.30
2024-03-06T17:40:51.973Z,17.20
2024-03-06T17:43:25.126Z,15.10
2024-03-06T17:45:58.456Z,11.20
2024-03-06T17:48:32.043Z,10.10
2024-03-06T17:51:05.812Z,16.20
2024-03-06T17:53:39.135Z,13.10
2024-03-06T17:56:13.613Z,15.20
2024-03-06T17:58:46.737Z,14.60
2024-03-06T18:01:21.494Z,13.10
2024-03-06T18:03:55.851Z,14.40
2024-03-06T18:06:29.007Z,11.30
2024-03-06T18:09:02.273Z,9.70
2024-03-06T18:11:35.577Z,15.80
2024-03-06T18:14:09.430Z,13.50
2024-03-06T18:16:44.358Z,12.70
2024-03-06T18:19:17.891Z,14.20
2024-03-06T18:21:51.036Z,13.30
2024-03-06T18:24:25.110Z,13.70
2024-03-06T18:26:59.644Z,14.20
2024-03-06T18:29:32.926Z,13.50
2024-03-06T18:32:09.364Z,12.60
2024-03-06T18:34:44.247Z,13.10
2024-03-06T18:37:17.627Z,9.20
2024-03-06T18:39:51.215Z,15.30
2024-03-06T18:42:24.494Z,13.40
2024-03-06T18:44:57.846Z,13.80
2024-03-06T18:47:31.118Z,15.60
2024-03-06T18:50:05.622Z,13.70
2024-03-06T18:52:39.664Z,17.50
2024-03-06T18:55:13.882Z,16.30
2024-03-06T18:57:47.189Z,12.60
2024-03-06T19:00:24.193Z,16.20
2024-03-06T19:02:57.531Z,15.40
2024-03-06T19:05:30.886Z,15.00
2024-03-06T19:08:04.128Z,16.20
2024-03-06T19:10:37.423Z,10.30
2024-03-06T19:13:10.846Z,17.00
2024-03-06T19:15:44.168Z,16.90
2024-03-06T19:18:17.435Z,19.30
2024-03-06T19:20:51.215Z,14.30
2024-03-06T19:23:24.486Z,15.90
2024-03-06T19:25:57.943Z,7.90
2024-03-06T19:28:31.141Z,15.10
2024-03-06T19:31:04.566Z,17.40
2024-03-06T19:33:37.883Z,15.00
2024-03-06T19:36:11.433Z,13.80
2024-03-06T19:38:44.743Z,14.50
2024-03-06T19:41:18.289Z,15.60
2024-03-06T19:43:51.898Z,18.20
2024-03-06T19:46:25.038Z,17.70
2024-03-06T19:48:58.504Z,14.80
2024-03-06T19:51:31.705Z,11.70
2024-03-06T19:54:08.365Z,16.50
2024-03-06T19:56:41.682Z,13.40
2024-03-06T19:59:15.181Z,12.70
2024-03-06T20:01:48.510Z,12.30
2024-03-06T20:04:21.949Z,14.20
2024-03-06T20:06:55.229Z,15.10
2024-03-06T20:09:29.387Z,13.80
2024-03-06T20:12:03.244Z,11.80
2024-03-06T20:14:37.089Z,12.00
2024-03-06T20:17:10.967Z,11.30
2024-03-06T20:19:46.921Z,13.60
2024-03-06T20:22:20.141Z,13.20
2024-03-06T20:24:53.499Z,11.10
2024-03-06T20:27:27.665Z,13.00
2024-03-06T20:30:00.814Z,12.00
2024-03-06T20:32:34.160Z,14.70
2024-03-06T20:35:08.965Z,12.10
2024-03-06T20:37:42.715Z,14.60
2024-03-06T20:40:17.413Z,10.00
2024-03-06T20:42:50.693Z,13.90
2024-03-06T20:45:23.910Z,13.00
2024-03-06T20:48:02.049Z,13.50
2024-03-06T20:50:36.291Z,11.50
2024-03-06T20:53:09.876Z,12.10
2024-03-06T20:55:46.952Z,13.90
2024-03-06T20:58:20.434Z,12.70
2024-03-06T21:00:53.694Z,12.10
2024-03-06T21:03:27.129Z,13.90
2024-03-06T21:06:00.578Z,14.30
2024-03-06T21:08:34.116Z,14.20
2024-03-06T21:11:08.823Z,13.90
2024-03-06T21:13:42.280Z,14.30
2024-03-06T21:16:15.437Z,12.70
2024-03-06T21:18:48.616Z,14.80
2024-03-06T21:21:21.777Z,9.60
2024-03-06T21:23:54.956Z,10.30
2024-03-06T21:26:28.346Z,13.50
2024-03-06T21:29:02.190Z,12.30
2024-03-06T21:31:36.208Z,12.00
2024-03-06T21:34:09.350Z,14.10
2024-03-06T21:36:42.727Z,10.30
2024-03-06T21:39:16.240Z,12.80
2024-03-06T21:41:49.468Z,14.10
2024-03-06T21:44:23.668Z,10.80
2024-03-06T21:46:57.968Z,14.10
2024-03-06T21:49:35.411Z,9.40
2024-03-06T21:52:13.163Z,11.10
2024-03-06T21:54:46.431Z,12.60
2024-03-06T21:57:19.608Z,13.00
2024-03-06T21:59:52.870Z,7.00
2024-03-06T22:02:26.724Z,13.70
2024-03-06T22:05:00.034Z,12.90
2024-03-06T22:07:33.215Z,13.00
2024-03-06T22:10:08.938Z,14.20
2024-03-06T22:12:42.519Z,16.10
2024-03-06T22:15:15.912Z,13.40
2024-03-06T22:17:49.877Z,7.60
2024-03-06T22:20:24.027Z,12.80
2024-03-06T22:22:57.369Z,13.30
2024-03-06T22:25:31.171Z,15.30
2024-03-06T22:28:04.572Z,12.30
2024-03-06T22:30:39.157Z,15.20
2024-03-06T22:33:12.540Z,14.90
2024-03-06T22:35:46.395Z,16.20
2024-03-06T22:38:19.628Z,16.90
2024-03-06T22:40:52.984Z,16.30
2024-03-06T22:43:26.210Z,14.50
2024-03-06T22:45:59.671Z,14.10
2024-03-06T22:48:33.039Z,14.70
2024-03-06T22:51:07.193Z,13.90
2024-03-06T22:53:40.937Z,15.10
2024-03-06T22:56:15.076Z,16.60
2024-03-06T22:58:48.701Z,16.00
2024-03-06T23:01:21.924Z,14.30
2024-03-06T23:03:55.391Z,17.90
2024-03-06T23:06:28.684Z,18.20
2024-03-06T23:09:02.063Z,12.00
2024-03-06T23:11:35.400Z,16.40
2024-03-06T23:14:08.830Z,17.00
2024-03-06T23:16:42.584Z,14.90
2024-03-06T23:19:16.199Z,15.10
2024-03-06T23:21:49.371Z,15.70
2024-03-06T23:24:22.564Z,18.30
2024-03-06T23:26:56.159Z,13.00
2024-03-06T23:29:29.376Z,13.30
2024-03-06T23:32:02.565Z,15.20
2024-03-06T23:34:35.784Z,16.20
2024-03-06T23:37:09.227Z,13.40
2024-03-06T23:39:42.479Z,12.60
2024-03-06T23:42:15.784Z,15.70
2024-03-06T23:44:49.321Z,13.90
2024-03-06T23:47:22.575Z,14.80
2024-03-06T23:49:55.809Z,15.30
2024-03-06T23:52:29.834Z,15.00
2024-03-06T23:55:03.550Z,13.40
2024-03-06T23:57:37.678Z,13.40
